VVPB/HUI METAR and TAF weather

Enter ICAO airport designator
Station Type Date Time Source
VVPB METAR 2020/06/03 16:00 UTC NOAA

VVPB 031600Z 21006KT 8000 FEW015 BKN060 26/24 Q1008 NOSIG


Station Type Date Time Source
VVPB Decoded METAR 2020/06/03 16:00 UTC NOAA

Hue, Vietnam (VVPB) 16-24N 107-41E 17M
Jun 03, 2020 - 12:00 PM EDT / 2020.06.03 1600 UTC
Wind: from the SSW (210 degrees) at 7 MPH (6 KT):0
Visibility: 4 mile(s):0
Sky conditions: mostly cloudy
Temperature: 78 F (26 C)
Dew Point: 75 F (24 C)
Relative Humidity: 88%
Pressure (altimeter): 29.77 in. Hg (1008 hPa)
ob: VVPB 031600Z 21006KT 8000 FEW015 BKN060 26/24 Q1008 NOSIG
cycle: 16

Station Type Date Time Source
VVPB TAF 2020/06/03 14:00 UTC NOAA

TAF
AMD VVPB 031400Z 0314/0412 22006KT 9999 FEW017 SCT060
TEMPO 0314/0316 4000 TSRA SCT015 FEW017CB BKN060
BECMG 0403/0404 08010KT
TEMPO 0408/0412 TS FEW015 FEW017CB SCT060

Example: see airport list